Aviation Digital Data Service (ADDS)

Output produced by METARs form (1642 UTC 28 February 2017)
found at http://www.aviationweather.gov/adds/metars/
 
KJST 281554Z AUTO 20010KT 10SM CLR 12/04 A3017 RMK AO2 SLP226 T01220039
KJST 281454Z AUTO 18008KT 10SM CLR 11/03 A3020 RMK AO2 SLP238 T01060033 50001
KJST 281354Z AUTO 18006KT 10SM CLR 08/01 A3022 RMK AO2 SLP246 T00830011
KJST 281254Z AUTO 22003KT 10SM CLR 06/M01 A3021 RMK AO2 SLP245 T00611006
KJST 281154Z AUTO 17005KT 10SM CLR 06/M02 A3020 RMK AO2 SLP241 60000 70014 T00561022 10061 20050 58009
KJST 281054Z AUTO 17004KT 10SM CLR 06/M02 A3021 RMK AO2 SLP244 T00561022
KJST 280954Z AUTO 18004KT 10SM SCT048 06/M02 A3022 RMK AO2 SLP248 T00561017
KJST 280854Z AUTO 20003KT 10SM BKN050 OVC065 06/M01 A3023 RMK AO2 SLP252 60000 T00561011 56004
KJST 280754Z AUTO 20004KT 10SM BKN048 OVC070 06/M01 A3023 RMK AO2 SLP253 T00561006
KJST 280654Z AUTO 18005KT 10SM FEW015 OVC046 06/00 A3023 RMK AO2 RAB38E48 SLP252 P0000 T00560000
KJST 280554Z AUTO 19004KT 10SM BKN055 OVC070 05/01 A3024 RMK AO2 SLP256 T00500006 10050 20033 56009
KJST 280454Z AUTO 20003KT 10SM OVC055 04/01 A3025 RMK AO2 SLP259 T00440011 400611017
KJST 280354Z AUTO 20004KT 10SM BKN060 OVC075 04/01 A3026 RMK AO2 SLP261 T00390011
KJST 280254Z AUTO 22004KT 10SM BKN075 04/02 A3027 RMK AO2 SLP266 T00390017 55001
KJST 280154Z AUTO 18006KT 10SM FEW070 SCT085 03/02 A3026 RMK AO2 SLP266 T00330022
KJST 280054Z AUTO 18004KT 10SM OVC085 04/03 A3027 RMK AO2 SLP268 T00390028
KJST 272354Z AUTO 00000KT 10SM BKN055 OVC070 04/03 A3028 RMK AO2 SLP271 60014 T00390033 10050 20028 53002
KJST 272334Z AUTO 18004KT 10SM FEW016 OVC055 04/03 A3028 RMK AO2 T00390028
KJST 272254Z AUTO 21005KT 10SM BKN018 OVC048 04/03 A3028 RMK AO2 RAE49 SLP272 P0000 T00390028
KJST 272218Z AUTO 22004KT 10SM -RA FEW017 BKN036 OVC043 04/03 A3027 RMK AO2 P0000 T00390028
KJST 272209Z AUTO 21004KT 9SM -RA FEW009 BKN023 OVC041 04/03 A3027 RMK AO2 P0000 T00390028
KJST 272154Z AUTO VRB05KT 9SM -RA FEW010 BKN023 OVC029 04/03 A3027 RMK AO2 SLP269 P0003 T00390028
KJST 272142Z AUTO 18004KT 10SM -RA SCT014 BKN023 OVC031 03/03 A3027 RMK AO2 P0002 T00330028
KJST 272131Z AUTO 18003KT 8SM -RA BKN014 OVC029 03/03 A3026 RMK AO2 P0002 T00330028
KJST 272054Z AUTO 19004KT 7SM -RA BKN027 OVC036 03/02 A3027 RMK AO2 SLP272 P0006 60011 T00330022 50001
KJST 272006Z AUTO 21006KT 5SM RA BR SCT009 OVC020 03/02 A3027 RMK AO2 P0002 T00280017
KJST 271954Z AUTO 22006KT 6SM -RA BR OVC011 03/02 A3027 RMK AO2 SLP273 P0004 T00330017
KJST 271938Z AUTO 23006KT 7SM -RA BKN011 BKN018 OVC022 03/02 A3027 RMK AO2 P0002 T00330022
KJST 271854Z AUTO 22008KT 8SM -RA BKN023 OVC028 04/01 A3027 RMK AO2 RAB05 SLP271 P0001 T00390011
KJST 271849Z AUTO 21007KT 9SM -RA BKN026 OVC033 04/01 A3027 RMK AO2 RAB05 P0000
KJST 271754Z AUTO 19011G15KT 10SM BKN036 OVC044 05/M02 A3027 RMK AO2 SLP268 T00501017 10061 20011 58003
KJST 271654Z AUTO 22008G17KT 10SM BKN046 OVC055 06/M04 A3028 RMK AO2 SLP274 T00561044
KJST 271554Z AUTO 23009KT 10SM BKN070 06/M07 A3028 RMK AO2 SLP274 T00561067
KJST 271454Z AUTO 21008KT 10SM BKN075 04/M09 A3027 RMK AO2 SLP273 T00441094 50009
KJST 271354Z AUTO 20008KT 10SM BKN080 03/M11 A3028 RMK AO2 SLP275 T00281106
KJST 271254Z AUTO 20008KT 10SM OVC085 02/M11 A3026 RMK AO2 SLP270 T00171111
KJST 271154Z AUTO 21007KT 10SM OVC090 01/M11 A3025 RMK AO2 SLP267 T00111111 10011 21011 53015
KJST 271054Z AUTO 21006KT 10SM FEW070 BKN090 01/M12 A3023 RMK AO2 SLP260 T00061117
KJST 270954Z AUTO 19006KT 10SM BKN075 OVC090 00/M12 A3021 RMK AO2 SLP254 T00001122
KJST 270854Z AUTO 20006KT 10SM SCT100 M01/M12 A3020 RMK AO2 SLP250 T10061122 51010
KJST 270754Z AUTO 20008KT 10SM BKN100 M01/M12 A3019 RMK AO2 SLP250 T10061122
KJST 270654Z AUTO 21008KT 10SM CLR M01/M12 A3018 RMK AO2 SLP248 T10111117
KJST 270554Z AUTO 21006KT 10SM CLR M01/M12 A3017 RMK AO2 SLP244 T10111117 11006 21022 51003
KJST 270454Z AUTO 22008KT 10SM CLR M01/M12 A3017 RMK AO2 SLP244 T10111117 400001061